Time;durP1;ratioP1;P1;durP2;ratioP2;P2;SDS_P1;SDS_P2;PMS_P1;PMS_P2;Temp;Humidity;BMP_temperature;BMP_pressure;BME280_temperature;BME280_humidity;BME280_pressure;Samples;Min_cycle;Max_cycle;Signal;HPM_P1;HPM_P2
2022/12/11 00:02:15;;;;;;;9.77;6.97;;;;;;;;;;5011363;28;20232;-77
2022/12/11 00:04:40;;;;;;;9.20;6.30;;;;;;;;;;5014965;28;20184;-77
2022/12/11 00:07:06;;;;;;;9.03;6.43;;;;;;;;;;5012321;28;20194;-78
2022/12/11 00:09:31;;;;;;;10.20;6.70;;;;;;;;;;5025656;28;20174;-78
2022/12/11 00:11:56;;;;;;;10.10;7.00;;;;;;;;;;5033512;28;20170;-77
2022/12/11 00:14:21;;;;;;;9.47;6.33;;;;;;;;;;5010202;28;20214;-77
2022/12/11 00:16:48;;;;;;;9.63;6.83;;;;;;;;;;5013443;28;20181;-78
2022/12/11 00:19:13;;;;;;;9.13;6.40;;;;;;;;;;5013650;28;20469;-77
2022/12/11 00:21:38;;;;;;;11.00;7.57;;;;;;;;;;5012569;28;20263;-77
2022/12/11 00:24:04;;;;;;;9.87;6.37;;;;;;;;;;5012895;28;20175;-77
2022/12/11 00:26:29;;;;;;;7.63;5.83;;;;;;;;;;5031025;28;20175;-78
2022/12/11 00:28:55;;;;;;;8.10;5.77;;;;;;;;;;5011818;28;20179;-77
2022/12/11 00:31:21;;;;;;;9.07;4.87;;;;;;;;;;5009742;28;20227;-78
2022/12/11 00:33:50;;;;;;;9.63;6.57;;;;;;;;;;5009733;28;20184;-77
2022/12/11 00:36:22;;;;;;;11.23;6.83;;;;;;;;;;5009046;28;20190;-77
2022/12/11 00:38:48;;;;;;;10.17;7.23;;;;;;;;;;5029017;28;20175;-77
2022/12/11 00:41:13;;;;;;;7.90;5.40;;;;;;;;;;5011199;28;20234;-77
2022/12/11 00:43:39;;;;;;;11.37;7.53;;;;;;;;;;5014905;28;20233;-77
2022/12/11 00:46:04;;;;;;;8.63;5.60;;;;;;;;;;5009561;28;20166;-77
2022/12/11 00:48:30;;;;;;;12.03;7.53;;;;;;;;;;5011754;28;20179;-77
2022/12/11 00:50:55;;;;;;;11.63;7.47;;;;;;;;;;5010689;28;20175;-77
2022/12/11 00:53:20;;;;;;;8.43;6.23;;;;;;;;;;5019587;28;20547;-77
2022/12/11 00:55:45;;;;;;;13.70;8.10;;;;;;;;;;5010963;28;20217;-77
2022/12/11 00:58:11;;;;;;;12.20;7.87;;;;;;;;;;5014338;28;20269;-77
2022/12/11 01:00:37;;;;;;;10.60;7.07;;;;;;;;;;5009904;28;20218;-78
2022/12/11 01:03:02;;;;;;;12.93;8.73;;;;;;;;;;5008360;28;20175;-77
2022/12/11 01:05:27;;;;;;;15.23;9.97;;;;;;;;;;5009081;28;20514;-77
2022/12/11 01:07:52;;;;;;;14.87;8.93;;;;;;;;;;5015631;28;20213;-77
2022/12/11 01:10:23;;;;;;;14.50;8.93;;;;;;;;;;5008678;28;20194;-78
2022/12/11 01:12:53;;;;;;;14.37;8.90;;;;;;;;;;5010145;28;20178;-77
2022/12/11 01:15:20;;;;;;;15.83;9.77;;;;;;;;;;5022259;28;20206;-77
2022/12/11 01:17:45;;;;;;;13.87;8.13;;;;;;;;;;5012869;28;20210;-77
2022/12/11 01:20:10;;;;;;;18.80;9.90;;;;;;;;;;5013905;28;20189;-77
2022/12/11 01:22:36;;;;;;;16.67;10.37;;;;;;;;;;5020495;28;20198;-77
2022/12/11 01:25:01;;;;;;;13.33;9.93;;;;;;;;;;5009340;28;20178;-77
2022/12/11 01:27:26;;;;;;;11.50;7.20;;;;;;;;;;5010727;28;20170;-77
2022/12/11 01:29:52;;;;;;;18.97;11.37;;;;;;;;;;5022317;28;20215;-76
2022/12/11 01:32:17;;;;;;;20.53;11.37;;;;;;;;;;5033949;28;20226;-77
2022/12/11 01:34:42;;;;;;;18.57;11.47;;;;;;;;;;5015405;28;20249;-77
2022/12/11 01:37:07;;;;;;;17.97;10.93;;;;;;;;;;5013156;28;20208;-77
2022/12/11 01:39:32;;;;;;;18.83;10.17;;;;;;;;;;5009211;28;20178;-77
2022/12/11 01:41:58;;;;;;;22.13;13.47;;;;;;;;;;5016323;28;20174;-77
2022/12/11 01:44:23;;;;;;;20.57;12.50;;;;;;;;;;5009008;28;20183;-77
2022/12/11 01:46:48;;;;;;;19.67;12.25;;;;;;;;;;5014754;28;20281;-77
2022/12/11 01:49:16;;;;;;;21.13;12.23;;;;;;;;;;5010109;28;20183;-77
2022/12/11 01:51:54;;;;;;;17.30;10.67;;;;;;;;;;5010434;28;20182;-77
2022/12/11 01:54:20;;;;;;;19.40;12.50;;;;;;;;;;5013350;28;20198;-77
2022/12/11 01:56:47;;;;;;;20.00;11.93;;;;;;;;;;5012428;28;20175;-77
2022/12/11 01:59:14;;;;;;;24.93;14.80;;;;;;;;;;5015839;28;20170;-78
2022/12/11 02:01:42;;;;;;;19.37;12.77;;;;;;;;;;5029627;28;20179;-77
2022/12/11 02:04:08;;;;;;;20.87;12.30;;;;;;;;;;5009867;28;20253;-77
2022/12/11 02:06:38;;;;;;;21.77;13.77;;;;;;;;;;5011647;28;20197;-77
2022/12/11 02:09:05;;;;;;;23.33;11.83;;;;;;;;;;5015076;28;20266;-77
2022/12/11 02:11:35;;;;;;;21.10;12.43;;;;;;;;;;5006838;28;20180;-77
2022/12/11 02:14:13;;;;;;;20.03;12.13;;;;;;;;;;5030089;28;20202;-76
2022/12/11 02:16:48;;;;;;;25.37;14.00;;;;;;;;;;5006833;28;20194;-76
2022/12/11 02:19:32;;;;;;;26.50;13.77;;;;;;;;;;5011087;28;20178;-77
2022/12/11 02:21:57;;;;;;;17.80;10.20;;;;;;;;;;5007260;28;20182;-77
2022/12/11 02:24:29;;;;;;;18.60;11.67;;;;;;;;;;5008483;28;20194;-77
2022/12/11 02:27:26;;;;;;;15.93;10.77;;;;;;;;;;5008831;28;20460;-77
2022/12/11 02:30:03;;;;;;;18.47;11.27;;;;;;;;;;4983581;28;20191;-77
2022/12/11 02:32:51;;;;;;;22.70;13.17;;;;;;;;;;5031118;28;20240;-77
2022/12/11 02:35:20;;;;;;;21.77;12.40;;;;;;;;;;5043664;28;20210;-77
2022/12/11 02:37:46;;;;;;;25.17;13.83;;;;;;;;;;5046227;28;20170;-77
2022/12/11 02:40:13;;;;;;;22.43;13.67;;;;;;;;;;5041456;28;20186;-77
2022/12/11 02:42:39;;;;;;;24.23;13.10;;;;;;;;;;5045715;28;20247;-77
2022/12/11 02:45:06;;;;;;;22.53;13.10;;;;;;;;;;5045859;28;20190;-78
2022/12/11 02:47:32;;;;;;;24.83;14.47;;;;;;;;;;5049918;28;20175;-77
2022/12/11 02:49:58;;;;;;;21.40;13.03;;;;;;;;;;5045504;28;20198;-77
2022/12/11 02:52:24;;;;;;;22.83;12.77;;;;;;;;;;5045617;28;20255;-77
2022/12/11 02:54:50;;;;;;;20.47;12.53;;;;;;;;;;5048017;28;20205;-77
2022/12/11 02:57:21;;;;;;;22.03;13.27;;;;;;;;;;5046854;28;20178;-78
2022/12/11 02:59:46;;;;;;;21.13;12.43;;;;;;;;;;5065114;28;20249;-77
2022/12/11 03:02:12;;;;;;;23.23;12.87;;;;;;;;;;5046578;28;20269;-77
2022/12/11 03:04:38;;;;;;;26.30;13.03;;;;;;;;;;5052821;28;20208;-77
2022/12/11 03:07:14;;;;;;;24.77;12.93;;;;;;;;;;5048899;28;20210;-77
2022/12/11 03:09:40;;;;;;;23.07;14.37;;;;;;;;;;5052393;28;20200;-77
2022/12/11 03:12:08;;;;;;;28.00;14.00;;;;;;;;;;5046400;28;20182;-77
2022/12/11 03:14:33;;;;;;;19.97;12.07;;;;;;;;;;5049635;28;20205;-76
2022/12/11 03:17:03;;;;;;;20.80;13.37;;;;;;;;;;5044529;28;20258;-77
2022/12/11 03:19:34;;;;;;;21.63;13.10;;;;;;;;;;5053733;28;20177;-76
2022/12/11 03:22:11;;;;;;;23.00;14.03;;;;;;;;;;5054119;28;20174;-77
2022/12/11 03:24:55;;;;;;;19.47;11.03;;;;;;;;;;5054516;28;20201;-77
2022/12/11 03:27:23;;;;;;;26.00;13.23;;;;;;;;;;5045673;28;20248;-77
2022/12/11 03:30:17;;;;;;;23.73;13.20;;;;;;;;;;5050825;28;20242;-77
2022/12/11 03:32:54;;;;;;;21.03;12.43;;;;;;;;;;5053934;28;20221;-77
2022/12/11 03:35:46;;;;;;;22.60;12.50;;;;;;;;;;5048386;28;20197;-77
2022/12/11 03:38:17;;;;;;;23.00;13.83;;;;;;;;;;5048981;28;20178;-77
2022/12/11 03:40:45;;;;;;;25.73;13.53;;;;;;;;;;5049109;28;20181;-77
2022/12/11 03:43:10;;;;;;;25.93;12.43;;;;;;;;;;5049684;28;20166;-78
2022/12/11 03:45:37;;;;;;;21.83;11.97;;;;;;;;;;5056349;28;20265;-77
2022/12/11 03:48:02;;;;;;;21.40;12.17;;;;;;;;;;5039251;28;20174;-77
2022/12/11 03:50:29;;;;;;;22.23;12.50;;;;;;;;;;5047052;28;20235;-77
2022/12/11 03:52:56;;;;;;;26.50;14.43;;;;;;;;;;5052028;28;20504;-77
2022/12/11 03:55:21;;;;;;;26.60;13.70;;;;;;;;;;5052574;28;20433;-77
2022/12/11 03:57:47;;;;;;;21.17;10.80;;;;;;;;;;5042539;28;20167;-77
2022/12/11 04:00:14;;;;;;;21.67;12.97;;;;;;;;;;5050609;28;20258;-78
2022/12/11 04:02:39;;;;;;;20.70;12.07;;;;;;;;;;5045640;28;20187;-77
2022/12/11 04:05:05;;;;;;;23.87;13.37;;;;;;;;;;5048305;28;20196;-77
2022/12/11 04:07:30;;;;;;;18.90;10.73;;;;;;;;;;5040302;28;20190;-77
2022/12/11 04:09:55;;;;;;;24.13;12.63;;;;;;;;;;5054424;28;20321;-77
2022/12/11 04:12:21;;;;;;;23.87;12.77;;;;;;;;;;5049469;28;20174;-77
2022/12/11 04:15:01;;;;;;;17.83;10.97;;;;;;;;;;5051788;28;20201;-77
2022/12/11 04:25:39;;;;;;;17.87;10.87;;;;;;;;;;5046442;28;20255;-77
2022/12/11 04:28:04;;;;;;;18.17;10.83;;;;;;;;;;5053321;28;20189;-77
2022/12/11 04:30:30;;;;;;;20.27;10.67;;;;;;;;;;5054737;28;20178;-77
2022/12/11 04:32:55;;;;;;;15.97;9.87;;;;;;;;;;5052069;28;20221;-77
2022/12/11 04:35:20;;;;;;;17.90;10.47;;;;;;;;;;5050611;28;20197;-77
2022/12/11 04:37:46;;;;;;;17.33;9.67;;;;;;;;;;5046792;28;20181;-77
2022/12/11 04:40:12;;;;;;;17.37;9.13;;;;;;;;;;5065444;28;20170;-77
2022/12/11 04:42:38;;;;;;;15.87;9.60;;;;;;;;;;5049009;28;20170;-77
2022/12/11 04:45:04;;;;;;;14.93;8.57;;;;;;;;;;5046068;28;20185;-77
2022/12/11 04:47:29;;;;;;;14.17;8.73;;;;;;;;;;5046195;28;20182;-77
2022/12/11 04:49:55;;;;;;;18.57;9.77;;;;;;;;;;5045908;28;20191;-77
2022/12/11 04:52:20;;;;;;;17.33;9.60;;;;;;;;;;5062518;28;20217;-77
2022/12/11 04:54:45;;;;;;;19.87;8.40;;;;;;;;;;5040784;28;20199;-77
2022/12/11 04:57:11;;;;;;;17.87;9.97;;;;;;;;;;5045282;28;20464;-77
2022/12/11 04:59:36;;;;;;;17.40;9.30;;;;;;;;;;5049215;28;20449;-77
2022/12/11 05:02:01;;;;;;;16.40;10.13;;;;;;;;;;5052415;28;20177;-77
2022/12/11 05:04:31;;;;;;;17.87;9.53;;;;;;;;;;5048032;28;20174;-77
2022/12/11 05:06:57;;;;;;;17.33;9.80;;;;;;;;;;5045117;28;20183;-77
2022/12/11 05:09:22;;;;;;;14.03;9.73;;;;;;;;;;5045092;28;20182;-77
2022/12/11 05:11:47;;;;;;;12.73;8.07;;;;;;;;;;5044268;28;20186;-77
2022/12/11 05:14:12;;;;;;;17.57;10.30;;;;;;;;;;5047852;28;20209;-77
2022/12/11 05:16:38;;;;;;;13.23;8.47;;;;;;;;;;5050167;28;20228;-77
2022/12/11 05:19:03;;;;;;;15.07;8.83;;;;;;;;;;5045256;28;20277;-77
2022/12/11 05:21:28;;;;;;;15.13;8.90;;;;;;;;;;5046085;28;20178;-77
2022/12/11 05:23:53;;;;;;;15.20;8.63;;;;;;;;;;5043621;28;20182;-77
2022/12/11 05:26:19;;;;;;;14.27;8.20;;;;;;;;;;5044974;28;20173;-77
2022/12/11 05:28:44;;;;;;;13.57;8.23;;;;;;;;;;5043835;28;20178;-77
2022/12/11 05:31:10;;;;;;;13.57;8.27;;;;;;;;;;5055495;28;20397;-77
2022/12/11 05:33:35;;;;;;;10.97;7.30;;;;;;;;;;5039936;28;20174;-77
2022/12/11 05:36:00;;;;;;;12.97;7.60;;;;;;;;;;5044201;28;20197;-77
2022/12/11 05:38:26;;;;;;;14.27;8.20;;;;;;;;;;5046371;28;20179;-77
2022/12/11 05:40:58;;;;;;;14.83;9.23;;;;;;;;;;5042595;28;20174;-77
2022/12/11 05:43:23;;;;;;;12.43;8.03;;;;;;;;;;5036640;28;20239;-77
2022/12/11 05:45:49;;;;;;;16.07;9.50;;;;;;;;;;5047761;28;20174;-77
2022/12/11 05:48:14;;;;;;;12.93;8.33;;;;;;;;;;5052136;28;20170;-77
2022/12/11 05:50:39;;;;;;;14.37;8.90;;;;;;;;;;5050252;28;20182;-77
2022/12/11 05:53:04;;;;;;;12.30;7.33;;;;;;;;;;5047825;28;20193;-77
2022/12/11 05:55:33;;;;;;;11.03;7.27;;;;;;;;;;5035718;28;20209;-77
2022/12/11 05:57:58;;;;;;;13.23;7.30;;;;;;;;;;5048530;28;20248;-77
2022/12/11 06:00:23;;;;;;;12.00;7.03;;;;;;;;;;5047938;28;20269;-77
2022/12/11 06:02:48;;;;;;;8.83;6.33;;;;;;;;;;5038756;28;20182;-77
2022/12/11 06:05:13;;;;;;;10.63;6.73;;;;;;;;;;5041781;28;20189;-77
2022/12/11 06:07:39;;;;;;;8.80;5.40;;;;;;;;;;5046164;28;20182;-77
2022/12/11 06:10:04;;;;;;;10.40;5.70;;;;;;;;;;5047022;28;20174;-78
2022/12/11 06:12:30;;;;;;;9.80;5.80;;;;;;;;;;5038940;28;20181;-77
2022/12/11 06:14:55;;;;;;;8.10;5.73;;;;;;;;;;5049789;28;20201;-77
2022/12/11 06:17:20;;;;;;;10.67;6.00;;;;;;;;;;5047301;28;20232;-77
2022/12/11 06:19:45;;;;;;;7.37;5.07;;;;;;;;;;5045377;28;20174;-77
2022/12/11 06:22:10;;;;;;;7.93;5.57;;;;;;;;;;5046332;28;20188;-78
2022/12/11 06:24:36;;;;;;;8.33;5.17;;;;;;;;;;5048037;28;20230;-78
2022/12/11 06:27:01;;;;;;;6.07;4.57;;;;;;;;;;5045378;28;20208;-77
2022/12/11 06:29:26;;;;;;;7.20;4.63;;;;;;;;;;5056315;28;20238;-77
2022/12/11 06:31:51;;;;;;;8.13;5.43;;;;;;;;;;5046001;28;20221;-77
2022/12/11 06:34:16;;;;;;;11.10;5.40;;;;;;;;;;5051762;28;20193;-77
2022/12/11 06:36:42;;;;;;;10.03;6.20;;;;;;;;;;5049104;28;20269;-77
2022/12/11 06:39:07;;;;;;;8.97;5.30;;;;;;;;;;5052103;28;20182;-77
2022/12/11 06:41:32;;;;;;;7.60;5.23;;;;;;;;;;5048987;28;20209;-76
2022/12/11 06:43:57;;;;;;;11.20;5.73;;;;;;;;;;5051120;28;20178;-77
2022/12/11 06:46:23;;;;;;;8.33;5.50;;;;;;;;;;5044497;28;20177;-77
2022/12/11 06:48:48;;;;;;;9.03;5.70;;;;;;;;;;5048151;28;20261;-77
2022/12/11 06:51:15;;;;;;;11.87;7.57;;;;;;;;;;5051465;28;20269;-77
2022/12/11 06:53:40;;;;;;;8.77;6.20;;;;;;;;;;5051188;28;20294;-76
2022/12/11 06:56:10;;;;;;;9.33;6.70;;;;;;;;;;5050869;28;20284;-77
2022/12/11 06:58:36;;;;;;;9.37;6.23;;;;;;;;;;5049996;28;20174;-77
2022/12/11 07:01:02;;;;;;;12.43;7.20;;;;;;;;;;5048102;28;20190;-77
2022/12/11 07:03:27;;;;;;;9.17;6.40;;;;;;;;;;5049451;28;20185;-77
2022/12/11 07:05:53;;;;;;;10.60;6.27;;;;;;;;;;5047695;28;20273;-77
2022/12/11 07:08:18;;;;;;;9.77;6.53;;;;;;;;;;5058026;28;20198;-77
2022/12/11 07:10:43;;;;;;;11.70;8.10;;;;;;;;;;5045409;28;20178;-77
2022/12/11 07:13:09;;;;;;;14.13;7.43;;;;;;;;;;5065695;28;20213;-77
2022/12/11 07:15:34;;;;;;;12.07;8.07;;;;;;;;;;5050338;28;20208;-77
2022/12/11 07:17:59;;;;;;;13.63;8.37;;;;;;;;;;5048106;28;20189;-77
2022/12/11 07:20:24;;;;;;;11.97;7.50;;;;;;;;;;5051474;28;20177;-77
2022/12/11 07:22:49;;;;;;;10.47;6.60;;;;;;;;;;5045715;28;20177;-77
2022/12/11 07:25:15;;;;;;;9.20;6.57;;;;;;;;;;5050507;28;20170;-77
2022/12/11 07:27:40;;;;;;;49.87;27.10;;;;;;;;;;5048115;28;20178;-77
2022/12/11 07:30:06;;;;;;;27.50;16.13;;;;;;;;;;5047424;28;20189;-77
2022/12/11 07:32:31;;;;;;;23.37;14.10;;;;;;;;;;5046843;28;20229;-77
2022/12/11 07:34:56;;;;;;;14.57;8.97;;;;;;;;;;5049286;28;20398;-78
2022/12/11 07:37:21;;;;;;;14.90;8.83;;;;;;;;;;5064507;28;20202;-77
2022/12/11 07:39:47;;;;;;;12.30;7.03;;;;;;;;;;5047146;28;20174;-77
2022/12/11 07:42:13;;;;;;;15.63;10.57;;;;;;;;;;5051040;28;20169;-77
2022/12/11 07:44:38;;;;;;;15.07;13.27;;;;;;;;;;5051825;28;20174;-77
2022/12/11 07:47:03;;;;;;;17.20;11.33;;;;;;;;;;5047301;28;20229;-77
2022/12/11 07:49:29;;;;;;;22.30;14.67;;;;;;;;;;5046423;28;20245;-77
2022/12/11 07:51:54;;;;;;;13.90;10.70;;;;;;;;;;5049526;28;20244;-77
2022/12/11 07:54:19;;;;;;;10.60;7.63;;;;;;;;;;5048437;28;20213;-77
2022/12/11 07:56:46;;;;;;;12.73;8.40;;;;;;;;;;5047172;28;20210;-77
2022/12/11 07:59:12;;;;;;;12.13;7.10;;;;;;;;;;5046422;28;20221;-77
2022/12/11 08:01:37;;;;;;;11.37;7.83;;;;;;;;;;5048878;28;20256;-77
2022/12/11 08:04:04;;;;;;;13.50;7.67;;;;;;;;;;5046187;28;20178;-77
2022/12/11 08:06:30;;;;;;;12.10;7.83;;;;;;;;;;5046143;28;20174;-77
2022/12/11 08:08:55;;;;;;;12.30;7.13;;;;;;;;;;5050295;28;20181;-77
2022/12/11 08:11:21;;;;;;;10.33;7.30;;;;;;;;;;5047269;28;20170;-77
2022/12/11 08:13:46;;;;;;;12.43;8.40;;;;;;;;;;5046196;28;20174;-77
2022/12/11 08:16:12;;;;;;;9.30;6.97;;;;;;;;;;5049547;28;20199;-77
2022/12/11 08:18:38;;;;;;;10.17;5.70;;;;;;;;;;5047899;28;20217;-77
2022/12/11 08:21:14;;;;;;;9.80;7.00;;;;;;;;;;5052963;28;20173;-77
2022/12/11 08:23:40;;;;;;;12.37;7.67;;;;;;;;;;5044998;28;20174;-77
2022/12/11 08:26:07;;;;;;;14.93;8.53;;;;;;;;;;5049334;28;20201;-77
2022/12/11 08:28:32;;;;;;;12.40;8.90;;;;;;;;;;5047588;28;20182;-77
2022/12/11 08:30:58;;;;;;;9.93;6.70;;;;;;;;;;5046699;28;20182;-77
2022/12/11 08:33:23;;;;;;;11.27;6.87;;;;;;;;;;5016361;28;20518;-77
2022/12/11 08:35:48;;;;;;;11.27;6.73;;;;;;;;;;5009863;28;20277;-77
2022/12/11 08:38:14;;;;;;;9.30;5.67;;;;;;;;;;5005915;28;21236;-77
2022/12/11 08:40:39;;;;;;;10.70;7.40;;;;;;;;;;5012949;28;20177;-78
2022/12/11 08:43:04;;;;;;;9.57;6.63;;;;;;;;;;5012557;28;20175;-77
2022/12/11 08:45:30;;;;;;;12.83;6.57;;;;;;;;;;5014490;28;20186;-77
2022/12/11 08:47:56;;;;;;;15.53;7.90;;;;;;;;;;5018754;28;20180;-77
2022/12/11 08:50:22;;;;;;;15.73;9.33;;;;;;;;;;5010550;28;20523;-77
2022/12/11 08:52:47;;;;;;;13.67;8.53;;;;;;;;;;5012721;28;20266;-77
2022/12/11 08:55:12;;;;;;;17.27;10.40;;;;;;;;;;5014137;28;20298;-77
2022/12/11 08:57:40;;;;;;;20.37;10.10;;;;;;;;;;5013117;28;20171;-77
2022/12/11 09:00:12;;;;;;;25.00;11.40;;;;;;;;;;5030041;28;20269;-77
2022/12/11 09:02:37;;;;;;;14.27;8.90;;;;;;;;;;5001085;28;20191;-77
2022/12/11 09:05:06;;;;;;;16.63;10.07;;;;;;;;;;5013009;28;20183;-77
2022/12/11 09:07:31;;;;;;;11.93;8.77;;;;;;;;;;5011836;28;20209;-77
2022/12/11 09:09:57;;;;;;;11.03;7.90;;;;;;;;;;5014603;28;20179;-77
2022/12/11 09:12:22;;;;;;;13.13;8.83;;;;;;;;;;5029088;28;20174;-77
2022/12/11 09:14:47;;;;;;;17.33;10.53;;;;;;;;;;5012711;28;20224;-77
2022/12/11 09:17:12;;;;;;;15.67;9.93;;;;;;;;;;5005044;28;20198;-77
2022/12/11 09:19:37;;;;;;;14.97;9.63;;;;;;;;;;5013742;28;20188;-78
2022/12/11 09:22:03;;;;;;;15.57;9.10;;;;;;;;;;5015578;28;20262;-78
2022/12/11 09:24:28;;;;;;;16.87;8.63;;;;;;;;;;5009469;28;20244;-77
2022/12/11 09:26:53;;;;;;;12.27;8.23;;;;;;;;;;5008581;28;20248;-77
2022/12/11 09:29:18;;;;;;;9.10;6.30;;;;;;;;;;5009932;28;20229;-77
2022/12/11 09:31:45;;;;;;;13.73;8.83;;;;;;;;;;5023442;28;20237;-78
2022/12/11 09:34:11;;;;;;;25.90;17.80;;;;;;;;;;5040627;28;20170;-77
2022/12/11 09:36:40;;;;;;;13.07;9.60;;;;;;;;;;5042567;28;20181;-78
2022/12/11 09:39:07;;;;;;;13.07;8.13;;;;;;;;;;5042049;28;20296;-77
2022/12/11 09:41:36;;;;;;;10.33;6.17;;;;;;;;;;5047011;28;20186;-77
2022/12/11 09:44:06;;;;;;;11.13;7.43;;;;;;;;;;5041895;28;20175;-77
2022/12/11 09:46:32;;;;;;;11.87;7.80;;;;;;;;;;5051677;28;20273;-77
2022/12/11 09:48:58;;;;;;;10.60;6.43;;;;;;;;;;5042536;28;20337;-78
2022/12/11 09:51:29;;;;;;;13.37;7.43;;;;;;;;;;5040740;28;20287;-78
2022/12/11 09:53:55;;;;;;;10.10;7.23;;;;;;;;;;5044682;28;20180;-78
2022/12/11 09:56:24;;;;;;;7.70;5.17;;;;;;;;;;5049841;28;20188;-78
2022/12/11 09:59:08;;;;;;;7.77;5.57;;;;;;;;;;5045155;28;20192;-78
2022/12/11 10:01:54;;;;;;;10.63;6.63;;;;;;;;;;5040621;28;20205;-78
2022/12/11 10:04:37;;;;;;;8.07;5.33;;;;;;;;;;5003112;28;20209;-78
2022/12/11 10:07:18;;;;;;;9.10;5.53;;;;;;;;;;5047162;28;20209;-78
2022/12/11 10:09:50;;;;;;;7.50;5.23;;;;;;;;;;5041305;28;20239;-78
2022/12/11 10:12:38;;;;;;;7.70;4.57;;;;;;;;;;5066416;28;20265;-78
2022/12/11 10:15:12;;;;;;;7.83;5.83;;;;;;;;;;5038831;28;20206;-78
2022/12/11 10:17:39;;;;;;;11.43;7.13;;;;;;;;;;5040779;28;20285;-78
2022/12/11 10:20:19;;;;;;;7.30;5.47;;;;;;;;;;5044523;28;20320;-78
2022/12/11 10:22:45;;;;;;;8.17;5.53;;;;;;;;;;5052025;28;20190;-78
2022/12/11 10:25:37;;;;;;;7.80;4.83;;;;;;;;;;5044016;28;20217;-78
2022/12/11 10:28:15;;;;;;;6.93;4.67;;;;;;;;;;5027757;28;20191;-78
2022/12/11 10:30:46;;;;;;;4.90;4.00;;;;;;;;;;5042917;28;20193;-78
2022/12/11 10:33:25;;;;;;;8.53;4.27;;;;;;;;;;5045134;28;20199;-79
2022/12/11 10:35:52;;;;;;;28.20;14.97;;;;;;;;;;5047494;28;20214;-78
2022/12/11 10:38:23;;;;;;;10.37;5.67;;;;;;;;;;5042429;28;20294;-78
2022/12/11 10:40:52;;;;;;;44.80;22.27;;;;;;;;;;5043663;28;20178;-78
2022/12/11 10:43:17;;;;;;;6.20;4.20;;;;;;;;;;5039833;28;20236;-78
2022/12/11 10:45:49;;;;;;;5.57;3.80;;;;;;;;;;5044747;28;20183;-78
2022/12/11 10:48:14;;;;;;;6.87;3.83;;;;;;;;;;5047093;28;20196;-78
2022/12/11 10:50:41;;;;;;;216.60;86.33;;;;;;;;;;5049016;28;20178;-78
2022/12/11 10:53:18;;;;;;;23.13;12.27;;;;;;;;;;5054728;28;20188;-78
2022/12/11 10:55:44;;;;;;;12.10;6.97;;;;;;;;;;5036474;28;20202;-78
2022/12/11 10:58:15;;;;;;;15.00;12.10;;;;;;;;;;5045553;28;20266;-78
2022/12/11 11:00:41;;;;;;;12.17;10.43;;;;;;;;;;5049198;28;20166;-78
2022/12/11 11:03:23;;;;;;;9.30;7.93;;;;;;;;;;5049632;28;20242;-78
2022/12/11 11:05:49;;;;;;;9.67;6.20;;;;;;;;;;5041808;28;20183;-78
2022/12/11 11:08:18;;;;;;;6.77;4.60;;;;;;;;;;5046220;28;20552;-78
2022/12/11 11:10:57;;;;;;;7.63;5.13;;;;;;;;;;5045529;28;20265;-79
2022/12/11 11:13:23;;;;;;;6.33;4.20;;;;;;;;;;5050353;28;20284;-78
2022/12/11 11:15:48;;;;;;;7.37;6.03;;;;;;;;;;5052361;28;20229;-78
2022/12/11 11:18:20;;;;;;;9.70;4.87;;;;;;;;;;5050046;28;20240;-78
2022/12/11 11:20:46;;;;;;;8.20;5.57;;;;;;;;;;5048210;28;20208;-79
2022/12/11 11:23:13;;;;;;;7.43;4.97;;;;;;;;;;5050426;28;20190;-79
2022/12/11 11:25:39;;;;;;;5.63;4.07;;;;;;;;;;5051133;28;20186;-79
2022/12/11 11:28:24;;;;;;;6.07;3.90;;;;;;;;;;5043162;28;20256;-79
2022/12/11 11:31:16;;;;;;;8.47;5.30;;;;;;;;;;5060047;28;20182;-79
2022/12/11 11:34:04;;;;;;;10.93;5.87;;;;;;;;;;5005895;28;20195;-79
2022/12/11 11:36:31;;;;;;;10.97;7.40;;;;;;;;;;5019548;28;20184;-79
2022/12/11 11:38:57;;;;;;;31.53;14.83;;;;;;;;;;5013133;28;20270;-79
2022/12/11 11:41:28;;;;;;;152.60;50.17;;;;;;;;;;5006974;28;20186;-79
2022/12/11 11:44:13;;;;;;;26.43;14.73;;;;;;;;;;5009563;28;20177;-79
2022/12/11 11:46:39;;;;;;;26.63;13.73;;;;;;;;;;5012855;28;20194;-79
2022/12/11 11:49:23;;;;;;;53.47;28.87;;;;;;;;;;5006730;28;20188;-79
2022/12/11 11:51:52;;;;;;;31.67;17.00;;;;;;;;;;5012690;28;20179;-79
2022/12/11 11:54:24;;;;;;;8.00;6.07;;;;;;;;;;5008932;28;20183;-79
2022/12/11 11:56:50;;;;;;;11.93;7.03;;;;;;;;;;5011104;28;20176;-79
2022/12/11 11:59:22;;;;;;;14.20;9.50;;;;;;;;;;5008203;28;20221;-80
2022/12/11 12:01:47;;;;;;;10.23;6.47;;;;;;;;;;5003478;28;20178;-80
2022/12/11 12:04:12;;;;;;;8.17;5.00;;;;;;;;;;5006479;28;20179;-80
2022/12/11 12:07:06;;;;;;;6.67;4.47;;;;;;;;;;5027878;28;20174;-80
2022/12/11 12:09:37;;;;;;;7.53;5.37;;;;;;;;;;5025796;28;20188;-80
2022/12/11 12:12:23;;;;;;;4.73;4.20;;;;;;;;;;5009699;28;20201;-79
2022/12/11 12:15:00;;;;;;;6.53;4.50;;;;;;;;;;4999747;28;20207;-80
2022/12/11 12:17:38;;;;;;;6.77;4.03;;;;;;;;;;5018119;28;20202;-80
2022/12/11 12:20:04;;;;;;;6.73;4.60;;;;;;;;;;5005433;28;20178;-80
2022/12/11 12:22:35;;;;;;;6.70;4.23;;;;;;;;;;5005722;28;20188;-80
2022/12/11 12:25:16;;;;;;;5.83;4.00;;;;;;;;;;5013333;28;20469;-80
2022/12/11 12:27:44;;;;;;;7.20;4.17;;;;;;;;;;5015114;28;20188;-80
2022/12/11 12:30:16;;;;;;;21.23;14.43;;;;;;;;;;5011295;28;20206;-80
2022/12/11 12:32:45;;;;;;;19.37;14.83;;;;;;;;;;5041113;28;20222;-80
2022/12/11 12:35:13;;;;;;;6.33;4.57;;;;;;;;;;5047724;28;20232;-80
2022/12/11 12:37:46;;;;;;;2.30;1.67;;;;;;;;;;5051893;28;20293;-81
2022/12/11 12:40:30;;;;;;;3.63;2.50;;;;;;;;;;5049683;28;20180;-80
2022/12/11 12:43:01;;;;;;;4.73;3.37;;;;;;;;;;5044363;28;20193;-80
2022/12/11 12:45:33;;;;;;;4.93;3.37;;;;;;;;;;5065249;28;20171;-80
2022/12/11 12:47:59;;;;;;;7.67;4.70;;;;;;;;;;5055081;28;20178;-80
2022/12/11 12:50:27;;;;;;;6.70;5.43;;;;;;;;;;5032036;28;20249;-81
2022/12/11 12:52:53;;;;;;;10.20;6.63;;;;;;;;;;5051172;28;20190;-81
2022/12/11 12:55:23;;;;;;;9.70;6.10;;;;;;;;;;5050539;28;20204;-81
2022/12/11 12:57:56;;;;;;;9.77;6.37;;;;;;;;;;5024892;28;20180;-81
2022/12/11 13:00:24;;;;;;;9.33;6.70;;;;;;;;;;5044237;28;20186;-81
2022/12/11 13:02:50;;;;;;;12.10;6.87;;;;;;;;;;5043626;28;20187;-81
2022/12/11 13:05:20;;;;;;;10.63;6.70;;;;;;;;;;5043625;28;20209;-80
2022/12/11 13:07:50;;;;;;;11.00;7.27;;;;;;;;;;5045940;28;20182;-81
2022/12/11 13:10:31;;;;;;;9.40;7.10;;;;;;;;;;5047534;28;20183;-81
2022/12/11 13:12:57;;;;;;;8.07;6.53;;;;;;;;;;5047163;28;20171;-81
2022/12/11 13:15:22;;;;;;;7.67;5.37;;;;;;;;;;5062205;28;20206;-81
2022/12/11 13:17:47;;;;;;;7.80;7.00;;;;;;;;;;5043432;28;20205;-81
2022/12/11 13:20:16;;;;;;;9.87;6.20;;;;;;;;;;5043604;28;20182;-80
2022/12/11 13:22:55;;;;;;;8.53;5.73;;;;;;;;;;5051211;28;20171;-80
2022/12/11 13:25:28;;;;;;;7.60;5.40;;;;;;;;;;5047116;28;20182;-81
2022/12/11 13:28:04;;;;;;;6.27;4.50;;;;;;;;;;5044719;28;20179;-81
2022/12/11 13:30:29;;;;;;;5.97;3.53;;;;;;;;;;5045956;28;20186;-80
2022/12/11 13:33:05;;;;;;;6.53;4.40;;;;;;;;;;5012481;28;20334;-80
2022/12/11 13:35:31;;;;;;;9.67;5.77;;;;;;;;;;5010562;28;20199;-80
2022/12/11 13:38:01;;;;;;;6.77;3.87;;;;;;;;;;5021940;28;20173;-80
2022/12/11 13:40:31;;;;;;;5.90;3.53;;;;;;;;;;5026946;28;20182;-80
2022/12/11 13:43:05;;;;;;;4.23;3.40;;;;;;;;;;5009028;28;20221;-79
2022/12/11 13:45:45;;;;;;;5.83;3.63;;;;;;;;;;5028106;28;20179;-79
2022/12/11 13:48:23;;;;;;;10.70;8.43;;;;;;;;;;5026480;28;20186;-79
2022/12/11 13:50:49;;;;;;;7.77;6.37;;;;;;;;;;5010230;28;20192;-79
2022/12/11 13:53:16;;;;;;;6.10;5.17;;;;;;;;;;5011536;28;20381;-79
2022/12/11 13:55:41;;;;;;;7.90;5.27;;;;;;;;;;5007954;28;20203;-79
2022/12/11 13:58:19;;;;;;;7.97;4.50;;;;;;;;;;5011268;28;20188;-79
2022/12/11 14:01:03;;;;;;;8.73;3.23;;;;;;;;;;5010195;28;20183;-79
2022/12/11 14:03:30;;;;;;;5.00;3.90;;;;;;;;;;5012348;28;20517;-79
2022/12/11 14:05:55;;;;;;;5.37;3.83;;;;;;;;;;5006785;28;20189;-79
2022/12/11 14:08:21;;;;;;;9.47;4.77;;;;;;;;;;5013577;28;20627;-79
2022/12/11 14:10:50;;;;;;;7.23;5.10;;;;;;;;;;5008515;28;20335;-79
2022/12/11 14:13:28;;;;;;;4.93;3.47;;;;;;;;;;5014935;28;20188;-79
2022/12/11 14:15:53;;;;;;;4.33;3.30;;;;;;;;;;5019853;28;20216;-80
2022/12/11 14:18:23;;;;;;;6.37;3.87;;;;;;;;;;5008969;28;20200;-79
2022/12/11 14:20:59;;;;;;;14.27;12.10;;;;;;;;;;5016403;28;20192;-79
2022/12/11 14:23:29;;;;;;;12.50;11.27;;;;;;;;;;5032200;28;20196;-79
2022/12/11 14:25:56;;;;;;;4.73;3.70;;;;;;;;;;5011964;28;20184;-79
2022/12/11 14:28:29;;;;;;;7.57;6.07;;;;;;;;;;5012202;28;20195;-79
2022/12/11 14:30:57;;;;;;;5.63;4.67;;;;;;;;;;5008883;28;20184;-79
2022/12/11 14:33:24;;;;;;;5.03;4.17;;;;;;;;;;5033837;28;20229;-78
2022/12/11 14:35:51;;;;;;;7.53;6.83;;;;;;;;;;5046161;28;20222;-79
2022/12/11 14:38:18;;;;;;;5.60;3.70;;;;;;;;;;5028344;28;20186;-79
2022/12/11 14:40:45;;;;;;;5.43;4.13;;;;;;;;;;5027045;28;20214;-79
2022/12/11 14:43:14;;;;;;;6.20;3.87;;;;;;;;;;5026097;28;20222;-78
2022/12/11 14:45:41;;;;;;;6.73;4.10;;;;;;;;;;5029499;28;20209;-78
2022/12/11 14:48:15;;;;;;;4.97;3.00;;;;;;;;;;5028146;28;20188;-79